sensor_id;sensor_type;location;lat;lon;timestamp;temperature;humidity
8313;DHT22;4194;43.408;24.626;2022-07-23T00:01:23;22.90;66.60
8313;DHT22;4194;43.408;24.626;2022-07-23T00:03:50;23.80;67.90
8313;DHT22;4194;43.408;24.626;2022-07-23T00:06:17;22.70;66.70
8313;DHT22;4194;43.408;24.626;2022-07-23T00:11:09;23.70;68.20
8313;DHT22;4194;43.408;24.626;2022-07-23T00:13:35;24.40;69.30
8313;DHT22;4194;43.408;24.626;2022-07-23T00:16:01;22.00;67.00
8313;DHT22;4194;43.408;24.626;2022-07-23T00:18:26;23.50;69.40
8313;DHT22;4194;43.408;24.626;2022-07-23T00:20:52;24.20;69.60
8313;DHT22;4194;43.408;24.626;2022-07-23T00:25:44;23.40;69.30
8313;DHT22;4194;43.408;24.626;2022-07-23T00:28:13;25.20;70.90
8313;DHT22;4194;43.408;24.626;2022-07-23T00:30:39;24.90;70.60
8313;DHT22;4194;43.408;24.626;2022-07-23T00:33:07;23.20;69.30
8313;DHT22;4194;43.408;24.626;2022-07-23T00:35:35;21.60;67.80
8313;DHT22;4194;43.408;24.626;2022-07-23T00:38:04;24.60;71.10
8313;DHT22;4194;43.408;24.626;2022-07-23T00:40:30;24.20;70.60
8313;DHT22;4194;43.408;24.626;2022-07-23T00:42:56;22.20;69.00
8313;DHT22;4194;43.408;24.626;2022-07-23T00:45:22;23.80;71.10
8313;DHT22;4194;43.408;24.626;2022-07-23T00:47:48;24.30;71.70
8313;DHT22;4194;43.408;24.626;2022-07-23T00:50:14;22.10;70.10
8313;DHT22;4194;43.408;24.626;2022-07-23T00:52:41;21.60;69.60
8313;DHT22;4194;43.408;24.626;2022-07-23T01:00:00;22.80;71.70
8313;DHT22;4194;43.408;24.626;2022-07-23T01:02:26;22.90;71.60
8313;DHT22;4194;43.408;24.626;2022-07-23T01:04:53;22.50;71.10
8313;DHT22;4194;43.408;24.626;2022-07-23T01:07:19;21.90;71.10
8313;DHT22;4194;43.408;24.626;2022-07-23T01:09:45;21.00;70.30
8313;DHT22;4194;43.408;24.626;2022-07-23T01:14:37;23.70;73.60
8313;DHT22;4194;43.408;24.626;2022-07-23T01:17:03;22.60;73.20
8313;DHT22;4194;43.408;24.626;2022-07-23T01:19:29;22.90;73.40
8313;DHT22;4194;43.408;24.626;2022-07-23T01:21:57;24.00;74.40
8313;DHT22;4194;43.408;24.626;2022-07-23T01:24:22;21.70;71.40
8313;DHT22;4194;43.408;24.626;2022-07-23T01:26:49;23.00;73.30
8313;DHT22;4194;43.408;24.626;2022-07-23T01:29:15;21.50;71.90
8313;DHT22;4194;43.408;24.626;2022-07-23T01:31:42;21.10;71.40
8313;DHT22;4194;43.408;24.626;2022-07-23T01:34:08;22.60;72.80
8313;DHT22;4194;43.408;24.626;2022-07-23T01:36:34;21.60;71.80
8313;DHT22;4194;43.408;24.626;2022-07-23T01:39:01;22.90;73.20
8313;DHT22;4194;43.408;24.626;2022-07-23T01:41:27;23.60;74.20
8313;DHT22;4194;43.408;24.626;2022-07-23T01:43:52;21.60;72.50
8313;DHT22;4194;43.408;24.626;2022-07-23T01:46:18;21.30;72.20
8313;DHT22;4194;43.408;24.626;2022-07-23T01:48:44;23.00;74.10
8313;DHT22;4194;43.408;24.626;2022-07-23T01:51:09;23.50;75.00
8313;DHT22;4194;43.408;24.626;2022-07-23T01:53:35;23.70;75.40
8313;DHT22;4194;43.408;24.626;2022-07-23T01:56:01;22.30;74.50
8313;DHT22;4194;43.408;24.626;2022-07-23T01:58:27;21.10;73.70
8313;DHT22;4194;43.408;24.626;2022-07-23T02:00:53;22.20;74.70
8313;DHT22;4194;43.408;24.626;2022-07-23T02:03:19;22.20;75.00
8313;DHT22;4194;43.408;24.626;2022-07-23T02:05:45;21.20;74.70
8313;DHT22;4194;43.408;24.626;2022-07-23T02:08:11;22.80;76.50
8313;DHT22;4194;43.408;24.626;2022-07-23T02:10:36;22.30;74.30
8313;DHT22;4194;43.408;24.626;2022-07-23T02:13:02;21.10;73.40
8313;DHT22;4194;43.408;24.626;2022-07-23T02:15:28;21.80;74.40
8313;DHT22;4194;43.408;24.626;2022-07-23T02:17:54;22.80;76.10
8313;DHT22;4194;43.408;24.626;2022-07-23T02:20:21;21.50;74.80
8313;DHT22;4194;43.408;24.626;2022-07-23T02:22:46;22.40;76.10
8313;DHT22;4194;43.408;24.626;2022-07-23T02:25:12;21.10;75.70
8313;DHT22;4194;43.408;24.626;2022-07-23T02:27:38;22.80;77.20
8313;DHT22;4194;43.408;24.626;2022-07-23T02:30:04;21.90;76.90
8313;DHT22;4194;43.408;24.626;2022-07-23T02:32:30;21.70;77.00
8313;DHT22;4194;43.408;24.626;2022-07-23T02:34:56;21.70;77.80
8313;DHT22;4194;43.408;24.626;2022-07-23T02:37:21;21.60;78.40
8313;DHT22;4194;43.408;24.626;2022-07-23T02:39:47;21.60;78.60
8313;DHT22;4194;43.408;24.626;2022-07-23T02:42:14;20.60;77.90
8313;DHT22;4194;43.408;24.626;2022-07-23T02:44:40;21.60;79.50
8313;DHT22;4194;43.408;24.626;2022-07-23T02:47:05;21.50;79.80
8313;DHT22;4194;43.408;24.626;2022-07-23T02:49:31;21.60;80.10
8313;DHT22;4194;43.408;24.626;2022-07-23T02:51:57;22.70;81.30
8313;DHT22;4194;43.408;24.626;2022-07-23T02:54:22;21.60;80.70
8313;DHT22;4194;43.408;24.626;2022-07-23T02:56:48;20.40;80.00
8313;DHT22;4194;43.408;24.626;2022-07-23T02:59:16;21.50;81.10
8313;DHT22;4194;43.408;24.626;2022-07-23T03:04:08;21.60;81.10
8313;DHT22;4194;43.408;24.626;2022-07-23T03:06:34;19.90;78.20
8313;DHT22;4194;43.408;24.626;2022-07-23T03:08:59;21.50;80.50
8313;DHT22;4194;43.408;24.626;2022-07-23T03:13:51;21.50;81.10
8313;DHT22;4194;43.408;24.626;2022-07-23T03:16:16;21.30;81.10
8313;DHT22;4194;43.408;24.626;2022-07-23T03:18:42;20.10;80.40
8313;DHT22;4194;43.408;24.626;2022-07-23T03:21:08;21.20;81.60
8313;DHT22;4194;43.408;24.626;2022-07-23T03:23:34;22.30;83.00
8313;DHT22;4194;43.408;24.626;2022-07-23T03:26:00;21.10;82.00
8313;DHT22;4194;43.408;24.626;2022-07-23T03:28:25;22.70;83.90
8313;DHT22;4194;43.408;24.626;2022-07-23T03:30:51;21.20;82.80
8313;DHT22;4194;43.408;24.626;2022-07-23T03:33:18;19.80;80.50
8313;DHT22;4194;43.408;24.626;2022-07-23T03:35:46;21.20;81.80
8313;DHT22;4194;43.408;24.626;2022-07-23T03:38:13;21.00;81.80
8313;DHT22;4194;43.408;24.626;2022-07-23T03:40:38;20.40;81.40
8313;DHT22;4194;43.408;24.626;2022-07-23T03:43:04;21.30;82.60
8313;DHT22;4194;43.408;24.626;2022-07-23T03:45:30;21.10;82.40
8313;DHT22;4194;43.408;24.626;2022-07-23T03:47:56;20.10;81.20
8313;DHT22;4194;43.408;24.626;2022-07-23T03:50:22;21.40;82.20
8313;DHT22;4194;43.408;24.626;2022-07-23T03:52:47;20.20;80.90
8313;DHT22;4194;43.408;24.626;2022-07-23T03:55:13;21.50;83.40
8313;DHT22;4194;43.408;24.626;2022-07-23T03:57:39;21.60;82.80
8313;DHT22;4194;43.408;24.626;2022-07-23T04:00:06;21.10;81.50
8313;DHT22;4194;43.408;24.626;2022-07-23T04:02:33;23.20;82.70
8313;DHT22;4194;43.408;24.626;2022-07-23T04:04:59;20.90;80.20
8313;DHT22;4194;43.408;24.626;2022-07-23T04:07:26;23.20;81.70
8313;DHT22;4194;43.408;24.626;2022-07-23T04:09:52;22.80;80.50
8313;DHT22;4194;43.408;24.626;2022-07-23T04:12:18;22.30;79.80
8313;DHT22;4194;43.408;24.626;2022-07-23T04:14:44;21.80;78.80
8313;DHT22;4194;43.408;24.626;2022-07-23T04:19:36;21.30;79.40
8313;DHT22;4194;43.408;24.626;2022-07-23T04:24:31;21.00;79.60
8313;DHT22;4194;43.408;24.626;2022-07-23T04:26:57;23.10;81.40
8313;DHT22;4194;43.408;24.626;2022-07-23T04:29:23;22.70;81.00
8313;DHT22;4194;43.408;24.626;2022-07-23T04:31:49;22.60;80.70
8313;DHT22;4194;43.408;24.626;2022-07-23T04:34:14;23.40;81.90
8313;DHT22;4194;43.408;24.626;2022-07-23T04:36:40;22.80;80.10
8313;DHT22;4194;43.408;24.626;2022-07-23T04:39:06;22.20;78.80
8313;DHT22;4194;43.408;24.626;2022-07-23T04:41:32;23.40;79.60
8313;DHT22;4194;43.408;24.626;2022-07-23T04:43:57;22.70;78.90
8313;DHT22;4194;43.408;24.626;2022-07-23T04:46:23;22.60;78.40
8313;DHT22;4194;43.408;24.626;2022-07-23T04:48:49;23.50;78.40
8313;DHT22;4194;43.408;24.626;2022-07-23T04:51:14;24.40;78.90
8313;DHT22;4194;43.408;24.626;2022-07-23T04:53:40;24.50;77.20
8313;DHT22;4194;43.408;24.626;2022-07-23T04:56:06;24.80;76.40
8313;DHT22;4194;43.408;24.626;2022-07-23T04:58:32;23.80;75.00
8313;DHT22;4194;43.408;24.626;2022-07-23T05:00:58;23.00;73.80
8313;DHT22;4194;43.408;24.626;2022-07-23T05:03:23;22.90;74.60
8313;DHT22;4194;43.408;24.626;2022-07-23T05:05:49;25.50;77.40
8313;DHT22;4194;43.408;24.626;2022-07-23T05:08:15;24.00;75.00
8313;DHT22;4194;43.408;24.626;2022-07-23T05:10:41;25.40;75.90
8313;DHT22;4194;43.408;24.626;2022-07-23T05:13:07;24.00;74.20
8313;DHT22;4194;43.408;24.626;2022-07-23T05:15:32;25.00;74.30
8313;DHT22;4194;43.408;24.626;2022-07-23T05:17:58;26.10;75.50
8313;DHT22;4194;43.408;24.626;2022-07-23T05:22:51;26.30;74.20
8313;DHT22;4194;43.408;24.626;2022-07-23T05:25:17;26.80;72.40
8313;DHT22;4194;43.408;24.626;2022-07-23T05:27:42;26.00;69.50
8313;DHT22;4194;43.408;24.626;2022-07-23T05:30:08;25.30;68.80
8313;DHT22;4194;43.408;24.626;2022-07-23T05:32:34;26.80;68.90
8313;DHT22;4194;43.408;24.626;2022-07-23T05:35:02;27.10;67.60
8313;DHT22;4194;43.408;24.626;2022-07-23T05:37:28;26.70;66.90
8313;DHT22;4194;43.408;24.626;2022-07-23T05:39:54;26.70;65.90
8313;DHT22;4194;43.408;24.626;2022-07-23T05:42:19;26.90;66.80
8313;DHT22;4194;43.408;24.626;2022-07-23T05:44:45;27.20;67.80
8313;DHT22;4194;43.408;24.626;2022-07-23T05:47:11;27.80;65.60
8313;DHT22;4194;43.408;24.626;2022-07-23T05:49:37;27.50;65.20
8313;DHT22;4194;43.408;24.626;2022-07-23T05:52:07;27.90;65.50
8313;DHT22;4194;43.408;24.626;2022-07-23T05:54:36;27.80;66.60
8313;DHT22;4194;43.408;24.626;2022-07-23T05:57:02;29.60;66.80
8313;DHT22;4194;43.408;24.626;2022-07-23T05:59:29;28.20;65.40
8313;DHT22;4194;43.408;24.626;2022-07-23T06:01:54;27.30;63.40
8313;DHT22;4194;43.408;24.626;2022-07-23T06:04:21;29.60;63.90
8313;DHT22;4194;43.408;24.626;2022-07-23T06:06:47;27.70;61.40
8313;DHT22;4194;43.408;24.626;2022-07-23T06:09:13;28.00;60.70
8313;DHT22;4194;43.408;24.626;2022-07-23T06:11:39;28.80;61.50
8313;DHT22;4194;43.408;24.626;2022-07-23T06:14:05;29.00;61.40
8313;DHT22;4194;43.408;24.626;2022-07-23T06:16:31;29.10;60.80
8313;DHT22;4194;43.408;24.626;2022-07-23T06:18:57;29.20;60.70
8313;DHT22;4194;43.408;24.626;2022-07-23T06:21:22;28.80;60.20
8313;DHT22;4194;43.408;24.626;2022-07-23T06:23:48;30.10;60.00
8313;DHT22;4194;43.408;24.626;2022-07-23T06:26:14;29.70;59.00
8313;DHT22;4194;43.408;24.626;2022-07-23T06:28:39;29.80;60.10
8313;DHT22;4194;43.408;24.626;2022-07-23T06:31:05;30.60;60.20
8313;DHT22;4194;43.408;24.626;2022-07-23T06:33:31;29.90;59.20
8313;DHT22;4194;43.408;24.626;2022-07-23T06:35:56;28.20;56.10
8313;DHT22;4194;43.408;24.626;2022-07-23T06:40:48;30.30;58.50
8313;DHT22;4194;43.408;24.626;2022-07-23T06:43:14;30.40;56.60
8313;DHT22;4194;43.408;24.626;2022-07-23T06:45:39;30.00;56.60
8313;DHT22;4194;43.408;24.626;2022-07-23T06:48:05;31.60;55.00
8313;DHT22;4194;43.408;24.626;2022-07-23T06:50:31;30.00;55.60
8313;DHT22;4194;43.408;24.626;2022-07-23T06:52:56;32.40;56.70
8313;DHT22;4194;43.408;24.626;2022-07-23T06:55:22;30.80;56.00
8313;DHT22;4194;43.408;24.626;2022-07-23T06:57:48;32.30;56.10
8313;DHT22;4194;43.408;24.626;2022-07-23T07:00:14;30.20;55.60
8313;DHT22;4194;43.408;24.626;2022-07-23T07:02:39;30.00;55.20
8313;DHT22;4194;43.408;24.626;2022-07-23T07:05:05;31.90;56.20
8313;DHT22;4194;43.408;24.626;2022-07-23T07:07:31;33.30;57.30
8313;DHT22;4194;43.408;24.626;2022-07-23T07:09:57;31.50;55.20
8313;DHT22;4194;43.408;24.626;2022-07-23T07:14:48;31.40;54.10
8313;DHT22;4194;43.408;24.626;2022-07-23T07:17:14;32.80;54.40
8313;DHT22;4194;43.408;24.626;2022-07-23T07:22:07;33.70;53.20
8313;DHT22;4194;43.408;24.626;2022-07-23T07:26:58;32.80;52.50
8313;DHT22;4194;43.408;24.626;2022-07-23T07:29:24;32.20;51.50
8313;DHT22;4194;43.408;24.626;2022-07-23T07:31:50;32.40;51.40
8313;DHT22;4194;43.408;24.626;2022-07-23T07:36:41;32.80;51.80
8313;DHT22;4194;43.408;24.626;2022-07-23T07:39:09;33.00;51.80
8313;DHT22;4194;43.408;24.626;2022-07-23T07:41:36;32.10;51.50
8313;DHT22;4194;43.408;24.626;2022-07-23T07:44:02;33.20;52.40
8313;DHT22;4194;43.408;24.626;2022-07-23T07:46:28;34.70;53.30
8313;DHT22;4194;43.408;24.626;2022-07-23T07:48:54;32.70;51.80
8313;DHT22;4194;43.408;24.626;2022-07-23T07:51:20;33.10;51.50
8313;DHT22;4194;43.408;24.626;2022-07-23T07:53:45;33.30;52.00
8313;DHT22;4194;43.408;24.626;2022-07-23T07:56:11;32.90;51.30
8313;DHT22;4194;43.408;24.626;2022-07-23T07:58:37;34.20;52.10
8313;DHT22;4194;43.408;24.626;2022-07-23T08:01:02;33.60;51.60
8313;DHT22;4194;43.408;24.626;2022-07-23T08:03:29;32.80;50.50
8313;DHT22;4194;43.408;24.626;2022-07-23T08:05:55;32.90;51.10
8313;DHT22;4194;43.408;24.626;2022-07-23T08:08:21;33.80;52.10
8313;DHT22;4194;43.408;24.626;2022-07-23T08:13:16;34.10;49.90
8313;DHT22;4194;43.408;24.626;2022-07-23T08:16:07;35.60;50.40
8313;DHT22;4194;43.408;24.626;2022-07-23T08:18:32;34.00;49.20
8313;DHT22;4194;43.408;24.626;2022-07-23T08:20:58;34.60;49.40
8313;DHT22;4194;43.408;24.626;2022-07-23T08:23:24;34.20;48.50
8313;DHT22;4194;43.408;24.626;2022-07-23T08:25:49;34.30;47.70
8313;DHT22;4194;43.408;24.626;2022-07-23T08:28:15;35.10;47.70
8313;DHT22;4194;43.408;24.626;2022-07-23T08:30:43;34.50;46.40
8313;DHT22;4194;43.408;24.626;2022-07-23T08:33:14;36.00;47.00
8313;DHT22;4194;43.408;24.626;2022-07-23T08:35:42;35.60;46.30
8313;DHT22;4194;43.408;24.626;2022-07-23T08:38:10;33.50;45.70
8313;DHT22;4194;43.408;24.626;2022-07-23T08:40:39;35.30;46.60
8313;DHT22;4194;43.408;24.626;2022-07-23T08:43:07;35.50;46.40
8313;DHT22;4194;43.408;24.626;2022-07-23T08:45:36;35.60;45.90
8313;DHT22;4194;43.408;24.626;2022-07-23T08:48:03;36.40;45.20
8313;DHT22;4194;43.408;24.626;2022-07-23T08:50:30;35.50;44.70
8313;DHT22;4194;43.408;24.626;2022-07-23T08:52:59;35.70;44.30
8313;DHT22;4194;43.408;24.626;2022-07-23T08:55:26;35.50;44.40
8313;DHT22;4194;43.408;24.626;2022-07-23T08:57:53;35.80;44.40
8313;DHT22;4194;43.408;24.626;2022-07-23T09:00:20;35.90;41.90
8313;DHT22;4194;43.408;24.626;2022-07-23T09:02:47;36.20;41.80
8313;DHT22;4194;43.408;24.626;2022-07-23T09:05:14;35.80;42.10
8313;DHT22;4194;43.408;24.626;2022-07-23T09:08:09;36.10;41.10
8313;DHT22;4194;43.408;24.626;2022-07-23T09:11:04;36.30;40.60
8313;DHT22;4194;43.408;24.626;2022-07-23T09:16:23;36.70;39.30
8313;DHT22;4194;43.408;24.626;2022-07-23T09:18:52;36.90;40.20
8313;DHT22;4194;43.408;24.626;2022-07-23T09:21:21;36.50;39.40
8313;DHT22;4194;43.408;24.626;2022-07-23T09:23:54;36.20;39.30
8313;DHT22;4194;43.408;24.626;2022-07-23T09:26:27;37.20;40.20
8313;DHT22;4194;43.408;24.626;2022-07-23T09:32:04;37.90;39.10
8313;DHT22;4194;43.408;24.626;2022-07-23T09:34:35;36.60;38.10
8313;DHT22;4194;43.408;24.626;2022-07-23T09:37:19;36.30;37.80
8313;DHT22;4194;43.408;24.626;2022-07-23T09:39:47;36.50;37.70
8313;DHT22;4194;43.408;24.626;2022-07-23T09:42:24;37.00;37.10
8313;DHT22;4194;43.408;24.626;2022-07-23T09:44:55;39.70;39.70
8313;DHT22;4194;43.408;24.626;2022-07-23T09:47:23;37.20;37.20
8313;DHT22;4194;43.408;24.626;2022-07-23T09:50:09;38.10;38.60
8313;DHT22;4194;43.408;24.626;2022-07-23T09:52:45;39.40;39.00
8313;DHT22;4194;43.408;24.626;2022-07-23T09:55:16;39.20;40.40
8313;DHT22;4194;43.408;24.626;2022-07-23T09:57:43;39.40;38.20
8313;DHT22;4194;43.408;24.626;2022-07-23T10:00:27;38.30;36.80
8313;DHT22;4194;43.408;24.626;2022-07-23T10:02:53;37.90;37.40
8313;DHT22;4194;43.408;24.626;2022-07-23T10:05:20;37.00;37.70
8313;DHT22;4194;43.408;24.626;2022-07-23T10:07:46;40.00;39.10
8313;DHT22;4194;43.408;24.626;2022-07-23T10:10:13;38.80;37.80
8313;DHT22;4194;43.408;24.626;2022-07-23T10:15:09;39.00;38.00
8313;DHT22;4194;43.408;24.626;2022-07-23T10:17:35;37.50;36.40
8313;DHT22;4194;43.408;24.626;2022-07-23T10:20:02;38.40;36.90
8313;DHT22;4194;43.408;24.626;2022-07-23T10:22:31;38.40;36.70
8313;DHT22;4194;43.408;24.626;2022-07-23T10:30:36;39.30;36.00
8313;DHT22;4194;43.408;24.626;2022-07-23T10:34:13;39.60;36.00
8313;DHT22;4194;43.408;24.626;2022-07-23T10:36:21;39.90;36.40
8313;DHT22;4194;43.408;24.626;2022-07-23T10:39:11;38.90;35.00
8313;DHT22;4194;43.408;24.626;2022-07-23T10:41:40;40.80;35.20
8313;DHT22;4194;43.408;24.626;2022-07-23T10:44:15;41.10;34.60
8313;DHT22;4194;43.408;24.626;2022-07-23T10:47:03;42.90;35.60
8313;DHT22;4194;43.408;24.626;2022-07-23T10:49:48;42.50;34.30
8313;DHT22;4194;43.408;24.626;2022-07-23T10:54:43;43.30;33.70
8313;DHT22;4194;43.408;24.626;2022-07-23T10:57:10;42.80;31.80
8313;DHT22;4194;43.408;24.626;2022-07-23T11:02:34;43.20;32.60
8313;DHT22;4194;43.408;24.626;2022-07-23T11:05:12;43.90;32.10
8313;DHT22;4194;43.408;24.626;2022-07-23T11:08:19;43.70;31.00
8313;DHT22;4194;43.408;24.626;2022-07-23T11:10:52;43.60;29.70
8313;DHT22;4194;43.408;24.626;2022-07-23T11:24:08;44.30;29.30
8313;DHT22;4194;43.408;24.626;2022-07-23T11:39:25;44.50;28.90
8313;DHT22;4194;43.408;24.626;2022-07-23T11:41:55;43.50;28.20
8313;DHT22;4194;43.408;24.626;2022-07-23T11:44:27;43.90;28.70
8313;DHT22;4194;43.408;24.626;2022-07-23T11:47:01;45.10;29.20
8313;DHT22;4194;43.408;24.626;2022-07-23T11:49:28;45.30;29.90
8313;DHT22;4194;43.408;24.626;2022-07-23T11:52:06;44.80;28.40
8313;DHT22;4194;43.408;24.626;2022-07-23T11:54:34;45.60;29.10
8313;DHT22;4194;43.408;24.626;2022-07-23T11:57:01;44.60;28.40
8313;DHT22;4194;43.408;24.626;2022-07-23T11:59:30;45.70;28.80
8313;DHT22;4194;43.408;24.626;2022-07-23T12:02:01;45.70;29.40
8313;DHT22;4194;43.408;24.626;2022-07-23T12:04:44;45.10;29.60
8313;DHT22;4194;43.408;24.626;2022-07-23T12:07:36;46.00;28.60
8313;DHT22;4194;43.408;24.626;2022-07-23T12:12:52;46.00;27.90
8313;DHT22;4194;43.408;24.626;2022-07-23T12:15:21;47.50;28.40
8313;DHT22;4194;43.408;24.626;2022-07-23T12:17:48;45.90;28.20
8313;DHT22;4194;43.408;24.626;2022-07-23T12:20:16;46.00;27.90
8313;DHT22;4194;43.408;24.626;2022-07-23T12:22:56;46.70;27.60
8313;DHT22;4194;43.408;24.626;2022-07-23T12:25:24;46.80;27.70
8313;DHT22;4194;43.408;24.626;2022-07-23T12:28:04;47.40;27.20
8313;DHT22;4194;43.408;24.626;2022-07-23T12:33:03;47.30;26.70
8313;DHT22;4194;43.408;24.626;2022-07-23T12:35:34;46.60;26.60
8313;DHT22;4194;43.408;24.626;2022-07-23T12:38:04;48.40;26.70
8313;DHT22;4194;43.408;24.626;2022-07-23T12:45:25;47.80;25.40
8313;DHT22;4194;43.408;24.626;2022-07-23T12:48:04;47.80;25.70
8313;DHT22;4194;43.408;24.626;2022-07-23T12:53:06;50.00;25.70
8313;DHT22;4194;43.408;24.626;2022-07-23T12:55:33;51.00;26.20
8313;DHT22;4194;43.408;24.626;2022-07-23T12:58:07;48.20;25.10
8313;DHT22;4194;43.408;24.626;2022-07-23T13:00:59;50.50;26.70
8313;DHT22;4194;43.408;24.626;2022-07-23T13:05:52;51.40;25.90
8313;DHT22;4194;43.408;24.626;2022-07-23T13:10:44;48.30;24.20
8313;DHT22;4194;43.408;24.626;2022-07-23T13:13:18;50.40;25.00
8313;DHT22;4194;43.408;24.626;2022-07-23T13:15:44;51.20;25.10
8313;DHT22;4194;43.408;24.626;2022-07-23T13:18:10;50.20;24.30
8313;DHT22;4194;43.408;24.626;2022-07-23T13:23:05;51.70;24.70
8313;DHT22;4194;43.408;24.626;2022-07-23T13:25:31;51.80;24.40
8313;DHT22;4194;43.408;24.626;2022-07-23T13:27:56;52.60;24.30
8313;DHT22;4194;43.408;24.626;2022-07-23T13:30:22;52.50;23.80
8313;DHT22;4194;43.408;24.626;2022-07-23T13:32:48;52.70;23.30
8313;DHT22;4194;43.408;24.626;2022-07-23T13:35:14;53.30;23.20
8313;DHT22;4194;43.408;24.626;2022-07-23T13:37:40;53.50;23.50
8313;DHT22;4194;43.408;24.626;2022-07-23T13:40:06;52.90;23.50
8313;DHT22;4194;43.408;24.626;2022-07-23T13:42:32;53.00;23.30
8313;DHT22;4194;43.408;24.626;2022-07-23T13:44:58;53.50;23.20
8313;DHT22;4194;43.408;24.626;2022-07-23T13:47:24;54.00;24.10
8313;DHT22;4194;43.408;24.626;2022-07-23T13:49:49;53.80;23.90
8313;DHT22;4194;43.408;24.626;2022-07-23T13:52:15;53.30;23.00
8313;DHT22;4194;43.408;24.626;2022-07-23T13:54:41;53.40;22.40
8313;DHT22;4194;43.408;24.626;2022-07-23T13:59:34;52.80;24.00
8313;DHT22;4194;43.408;24.626;2022-07-23T14:02:02;52.50;23.50
8313;DHT22;4194;43.408;24.626;2022-07-23T14:04:28;53.10;23.80
8313;DHT22;4194;43.408;24.626;2022-07-23T14:06:54;53.00;24.80
8313;DHT22;4194;43.408;24.626;2022-07-23T14:09:19;53.60;24.20
8313;DHT22;4194;43.408;24.626;2022-07-23T14:11:45;53.90;23.60
8313;DHT22;4194;43.408;24.626;2022-07-23T14:14:11;53.40;23.70
8313;DHT22;4194;43.408;24.626;2022-07-23T14:16:36;52.80;24.30
8313;DHT22;4194;43.408;24.626;2022-07-23T14:19:02;52.00;24.10
8313;DHT22;4194;43.408;24.626;2022-07-23T14:21:28;49.10;23.80
8313;DHT22;4194;43.408;24.626;2022-07-23T14:23:54;51.70;24.30
8313;DHT22;4194;43.408;24.626;2022-07-23T14:26:20;52.60;24.20
8313;DHT22;4194;43.408;24.626;2022-07-23T14:28:45;52.80;23.80
8313;DHT22;4194;43.408;24.626;2022-07-23T14:31:11;53.40;24.00
8313;DHT22;4194;43.408;24.626;2022-07-23T14:33:37;54.30;23.50
8313;DHT22;4194;43.408;24.626;2022-07-23T14:36:03;55.00;23.30
8313;DHT22;4194;43.408;24.626;2022-07-23T14:38:28;55.30;22.90
8313;DHT22;4194;43.408;24.626;2022-07-23T14:40:56;54.80;22.20
8313;DHT22;4194;43.408;24.626;2022-07-23T14:43:22;56.60;22.40
8313;DHT22;4194;43.408;24.626;2022-07-23T14:45:48;56.30;22.20
8313;DHT22;4194;43.408;24.626;2022-07-23T14:48:14;55.00;21.70
8313;DHT22;4194;43.408;24.626;2022-07-23T14:50:39;55.90;21.90
8313;DHT22;4194;43.408;24.626;2022-07-23T14:55:33;54.00;21.10
8313;DHT22;4194;43.408;24.626;2022-07-23T14:57:59;53.80;21.80
8313;DHT22;4194;43.408;24.626;2022-07-23T15:00:25;55.40;22.30
8313;DHT22;4194;43.408;24.626;2022-07-23T15:02:52;53.80;21.60
8313;DHT22;4194;43.408;24.626;2022-07-23T15:05:18;55.40;22.30
8313;DHT22;4194;43.408;24.626;2022-07-23T15:10:10;55.10;21.70
8313;DHT22;4194;43.408;24.626;2022-07-23T15:12:36;55.10;21.70
8313;DHT22;4194;43.408;24.626;2022-07-23T15:15:02;54.00;22.30
8313;DHT22;4194;43.408;24.626;2022-07-23T15:17:29;55.80;23.80
8313;DHT22;4194;43.408;24.626;2022-07-23T15:19:55;56.40;22.20
8313;DHT22;4194;43.408;24.626;2022-07-23T15:24:47;55.20;22.30
8313;DHT22;4194;43.408;24.626;2022-07-23T15:27:13;54.20;22.00
8313;DHT22;4194;43.408;24.626;2022-07-23T15:29:38;53.60;22.60
8313;DHT22;4194;43.408;24.626;2022-07-23T15:32:04;53.90;21.70
8313;DHT22;4194;43.408;24.626;2022-07-23T15:34:30;53.40;21.20
8313;DHT22;4194;43.408;24.626;2022-07-23T15:37:00;52.80;21.60
8313;DHT22;4194;43.408;24.626;2022-07-23T15:39:26;54.00;21.80
8313;DHT22;4194;43.408;24.626;2022-07-23T15:41:51;54.20;21.80
8313;DHT22;4194;43.408;24.626;2022-07-23T15:44:17;54.50;21.60
8313;DHT22;4194;43.408;24.626;2022-07-23T15:49:09;53.80;21.00
8313;DHT22;4194;43.408;24.626;2022-07-23T15:51:35;54.40;21.30
8313;DHT22;4194;43.408;24.626;2022-07-23T15:54:00;54.50;21.60
8313;DHT22;4194;43.408;24.626;2022-07-23T15:56:26;54.40;22.10
8313;DHT22;4194;43.408;24.626;2022-07-23T15:58:52;53.30;21.90
8313;DHT22;4194;43.408;24.626;2022-07-23T16:01:17;53.40;22.50
8313;DHT22;4194;43.408;24.626;2022-07-23T16:03:43;53.90;22.50
8313;DHT22;4194;43.408;24.626;2022-07-23T16:08:35;52.30;21.90
8313;DHT22;4194;43.408;24.626;2022-07-23T16:11:01;52.10;22.20
8313;DHT22;4194;43.408;24.626;2022-07-23T16:13:27;51.50;22.90
8313;DHT22;4194;43.408;24.626;2022-07-23T16:15:54;51.40;24.20
8313;DHT22;4194;43.408;24.626;2022-07-23T16:20:48;50.10;23.60
8313;DHT22;4194;43.408;24.626;2022-07-23T16:23:16;46.90;24.10
8313;DHT22;4194;43.408;24.626;2022-07-23T16:25:41;45.70;25.30
8313;DHT22;4194;43.408;24.626;2022-07-23T16:28:07;42.40;25.60
8313;DHT22;4194;43.408;24.626;2022-07-23T16:30:33;41.80;27.20
8313;DHT22;4194;43.408;24.626;2022-07-23T16:33:00;40.50;27.70
8313;DHT22;4194;43.408;24.626;2022-07-23T16:35:26;40.60;29.90
8313;DHT22;4194;43.408;24.626;2022-07-23T16:37:52;39.80;31.80
8313;DHT22;4194;43.408;24.626;2022-07-23T16:40:18;39.50;32.90
8313;DHT22;4194;43.408;24.626;2022-07-23T16:42:43;38.80;30.90
8313;DHT22;4194;43.408;24.626;2022-07-23T16:45:10;39.20;33.70
8313;DHT22;4194;43.408;24.626;2022-07-23T16:47:36;38.50;34.60
8313;DHT22;4194;43.408;24.626;2022-07-23T16:50:05;38.00;33.50
8313;DHT22;4194;43.408;24.626;2022-07-23T16:52:31;37.30;34.60
8313;DHT22;4194;43.408;24.626;2022-07-23T16:54:57;37.50;35.50
8313;DHT22;4194;43.408;24.626;2022-07-23T16:57:23;37.20;36.50
8313;DHT22;4194;43.408;24.626;2022-07-23T16:59:49;36.90;37.50
8313;DHT22;4194;43.408;24.626;2022-07-23T17:02:14;36.50;38.90
8313;DHT22;4194;43.408;24.626;2022-07-23T17:04:40;36.30;39.00
8313;DHT22;4194;43.408;24.626;2022-07-23T17:07:07;35.60;38.90
8313;DHT22;4194;43.408;24.626;2022-07-23T17:09:33;35.70;39.70
8313;DHT22;4194;43.408;24.626;2022-07-23T17:12:00;35.90;40.30
8313;DHT22;4194;43.408;24.626;2022-07-23T17:14:26;35.80;41.20
8313;DHT22;4194;43.408;24.626;2022-07-23T17:16:52;35.60;41.10
8313;DHT22;4194;43.408;24.626;2022-07-23T17:19:18;34.20;40.90
8313;DHT22;4194;43.408;24.626;2022-07-23T17:21:43;34.80;41.80
8313;DHT22;4194;43.408;24.626;2022-07-23T17:26:35;34.40;42.10
8313;DHT22;4194;43.408;24.626;2022-07-23T17:29:04;32.90;41.50
8313;DHT22;4194;43.408;24.626;2022-07-23T17:31:30;35.20;44.10
8313;DHT22;4194;43.408;24.626;2022-07-23T17:33:56;34.00;44.10
8313;DHT22;4194;43.408;24.626;2022-07-23T17:38:48;33.60;44.40
8313;DHT22;4194;43.408;24.626;2022-07-23T17:41:15;33.30;45.10
8313;DHT22;4194;43.408;24.626;2022-07-23T17:43:40;32.90;45.20
8313;DHT22;4194;43.408;24.626;2022-07-23T17:46:06;33.00;45.70
8313;DHT22;4194;43.408;24.626;2022-07-23T17:48:32;32.80;46.20
8313;DHT22;4194;43.408;24.626;2022-07-23T17:50:57;32.80;46.80